createdAt,value
2017-05-08T00:02:22.729Z,42.77
2017-05-08T00:04:49.418Z,43.35
2017-05-08T00:07:16.083Z,48.58
2017-05-08T00:09:42.782Z,45.78
2017-05-08T00:12:09.450Z,48.40
2017-05-08T00:14:36.119Z,49.88
2017-05-08T00:17:03.086Z,47.68
2017-05-08T00:19:29.746Z,52.60
2017-05-08T00:21:56.410Z,49.45
2017-05-08T00:24:23.078Z,46.25
2017-05-08T00:26:49.753Z,46.47
2017-05-08T00:29:16.419Z,46.88
2017-05-08T00:31:43.112Z,47.32
2017-05-08T00:34:09.769Z,41.43
2017-05-08T00:36:36.454Z,46.33
2017-05-08T00:39:03.119Z,37.82
2017-05-08T00:41:29.787Z,36.47
2017-05-08T00:43:56.455Z,37.05
2017-05-08T00:46:23.158Z,32.15
2017-05-08T00:48:49.831Z,33.08
2017-05-08T00:51:16.498Z,33.45
2017-05-08T00:53:43.168Z,28.13
2017-05-08T00:56:09.834Z,32.20
2017-05-08T00:58:36.501Z,23.48
2017-05-08T01:01:03.171Z,29.25
2017-05-08T01:03:29.850Z,27.97
2017-05-08T01:05:56.515Z,30.75
2017-05-08T01:08:23.178Z,24.55
2017-05-08T01:10:49.842Z,24.93
2017-05-08T01:13:16.506Z,23.82
2017-05-08T01:15:43.170Z,23.58
2017-05-08T01:18:09.830Z,25.08
2017-05-08T01:20:36.490Z,24.02
2017-05-08T01:23:03.167Z,21.00
2017-05-08T01:25:29.845Z,24.37
2017-05-08T01:27:56.507Z,26.95
2017-05-08T01:30:23.194Z,26.07
2017-05-08T01:32:49.863Z,24.20
2017-05-08T01:35:16.554Z,31.30
2017-05-08T01:37:43.510Z,28.02
2017-05-08T01:40:10.211Z,28.20
2017-05-08T01:42:36.886Z,30.08
2017-05-08T01:45:03.553Z,30.83
2017-05-08T01:47:30.249Z,31.48
2017-05-08T01:49:56.906Z,27.33
2017-05-08T01:52:23.573Z,30.05
2017-05-08T01:54:50.247Z,30.55
2017-05-08T01:57:16.910Z,30.05
2017-05-08T01:59:43.580Z,32.40
2017-05-08T02:02:10.274Z,32.50
2017-05-08T02:04:36.939Z,34.82
2017-05-08T02:07:03.626Z,28.70
2017-05-08T02:09:30.301Z,30.65
2017-05-08T02:11:57.009Z,30.77
2017-05-08T02:14:23.675Z,33.37
2017-05-08T02:16:50.337Z,31.13
2017-05-08T02:19:16.999Z,33.18
2017-05-08T02:21:43.662Z,28.37
2017-05-08T02:24:10.350Z,33.10
2017-05-08T02:26:37.018Z,29.88
2017-05-08T02:29:03.682Z,30.67
2017-05-08T02:31:30.346Z,30.20
2017-05-08T02:33:57.031Z,35.83
2017-05-08T02:36:23.706Z,32.10
2017-05-08T02:38:50.398Z,33.37
2017-05-08T02:41:17.058Z,38.05
2017-05-08T02:43:43.730Z,35.05
2017-05-08T02:46:10.401Z,32.75
2017-05-08T02:48:37.063Z,34.15
2017-05-08T02:51:03.746Z,33.62
2017-05-08T02:53:30.416Z,34.10
2017-05-08T02:55:57.086Z,38.53
2017-05-08T02:58:23.757Z,37.63
2017-05-08T03:00:50.447Z,35.28
2017-05-08T03:03:17.114Z,31.32
2017-05-08T03:05:43.778Z,30.12
2017-05-08T03:08:10.447Z,34.17
2017-05-08T03:10:37.109Z,36.37
2017-05-08T03:13:03.786Z,28.17
2017-05-08T03:15:30.477Z,31.72
2017-05-08T03:17:57.154Z,33.15
2017-05-08T03:20:23.846Z,31.62
2017-05-08T03:22:50.511Z,30.52
2017-05-08T03:25:17.174Z,30.80
2017-05-08T03:27:43.840Z,30.05
2017-05-08T03:30:10.502Z,28.22
2017-05-08T03:32:37.165Z,26.65
2017-05-08T03:35:03.832Z,24.12
2017-05-08T03:37:30.494Z,28.03
2017-05-08T03:39:57.163Z,26.83
2017-05-08T03:42:23.830Z,25.45
2017-05-08T03:44:50.493Z,26.45
2017-05-08T03:47:17.182Z,20.05
2017-05-08T03:49:43.848Z,24.50
2017-05-08T03:52:10.509Z,19.37
2017-05-08T03:54:37.174Z,23.52
2017-05-08T03:57:03.842Z,24.48
2017-05-08T03:59:30.550Z,20.80
2017-05-08T04:01:57.214Z,19.45
2017-05-08T04:04:23.898Z,22.03
2017-05-08T04:06:50.566Z,18.15
2017-05-08T04:09:17.231Z,21.97
2017-05-08T04:11:43.906Z,18.93
2017-05-08T04:14:10.595Z,19.60
2017-05-08T04:16:37.258Z,21.05
2017-05-08T04:19:03.929Z,18.12
2017-05-08T04:21:30.607Z,21.72
2017-05-08T04:23:57.293Z,18.22
2017-05-08T04:26:23.958Z,19.20
2017-05-08T04:28:50.630Z,22.10
2017-05-08T04:31:17.311Z,18.85
2017-05-08T04:33:43.984Z,19.58
2017-05-08T04:36:10.650Z,23.52
2017-05-08T04:38:37.328Z,16.98
2017-05-08T04:41:04.009Z,19.35
2017-05-08T04:43:30.670Z,16.52
2017-05-08T04:45:57.339Z,18.32
2017-05-08T04:48:24.020Z,20.30
2017-05-08T04:50:50.690Z,18.37
2017-05-08T04:53:17.354Z,19.48
2017-05-08T04:55:44.018Z,17.95
2017-05-08T04:58:10.686Z,19.42
2017-05-08T05:00:37.354Z,17.80
2017-05-08T05:03:04.019Z,18.15
2017-05-08T05:05:30.684Z,18.00
2017-05-08T05:07:57.346Z,17.23
2017-05-08T05:10:24.056Z,17.95
2017-05-08T05:12:51.168Z,17.13
2017-05-08T05:15:17.846Z,16.10
2017-05-08T05:17:44.518Z,17.68
2017-05-08T05:20:11.178Z,17.80
2017-05-08T05:22:37.845Z,19.02
2017-05-08T05:25:04.514Z,18.00
2017-05-08T05:27:31.196Z,14.20
2017-05-08T05:29:57.863Z,16.48
2017-05-08T05:32:24.559Z,11.30
2017-05-08T05:34:51.219Z,12.22
2017-05-08T05:37:17.879Z,11.97
2017-05-08T05:39:44.538Z,12.27
2017-05-08T05:42:11.238Z,14.27
2017-05-08T05:44:37.900Z,9.00
2017-05-08T05:47:04.555Z,9.83
2017-05-08T05:49:31.246Z,10.32
2017-05-08T05:51:57.916Z,10.37
2017-05-08T05:54:24.571Z,8.17
2017-05-08T05:56:51.234Z,10.10
2017-05-08T05:59:17.895Z,9.23
2017-05-08T06:01:44.554Z,10.37
2017-05-08T06:04:11.210Z,7.82
2017-05-08T06:06:37.863Z,7.92
2017-05-08T06:09:04.543Z,8.40
2017-05-08T06:11:31.198Z,7.90
2017-05-08T06:13:57.886Z,8.20
2017-05-08T06:16:24.542Z,7.43
2017-05-08T06:18:51.194Z,8.52
2017-05-08T06:21:17.859Z,10.20
2017-05-08T06:23:44.510Z,7.03
2017-05-08T06:26:11.195Z,7.07
2017-05-08T06:28:37.847Z,8.93
2017-05-08T06:31:04.503Z,9.67
2017-05-08T06:33:31.165Z,6.97
2017-05-08T06:35:57.850Z,12.55
2017-05-08T06:38:24.505Z,7.73
2017-05-08T06:40:51.463Z,10.17
2017-05-08T06:43:18.126Z,10.67
2017-05-08T06:45:44.786Z,9.47
2017-05-08T06:48:11.461Z,7.77
2017-05-08T06:50:38.114Z,8.05
2017-05-08T06:53:04.767Z,9.23
2017-05-08T06:55:31.426Z,7.80
2017-05-08T06:57:58.102Z,6.92
2017-05-08T07:00:24.759Z,7.37
2017-05-08T07:02:51.438Z,9.27
2017-05-08T07:05:18.099Z,9.93
2017-05-08T07:07:44.792Z,6.70
2017-05-08T07:10:11.454Z,5.70
2017-05-08T07:12:38.110Z,7.27
2017-05-08T07:15:04.762Z,7.22
2017-05-08T07:17:31.418Z,7.93
2017-05-08T07:19:58.099Z,8.23
2017-05-08T07:22:24.754Z,8.22
2017-05-08T07:24:51.434Z,10.12
2017-05-08T07:27:18.092Z,8.25
2017-05-08T07:29:44.750Z,8.00
2017-05-08T07:32:11.418Z,9.23
2017-05-08T07:34:38.078Z,9.30
2017-05-08T07:37:04.739Z,10.30
2017-05-08T07:39:31.403Z,9.27
2017-05-08T07:41:58.062Z,8.95
2017-05-08T07:44:24.742Z,9.27
2017-05-08T07:46:51.398Z,9.57
2017-05-08T07:49:18.059Z,7.78
2017-05-08T07:51:44.719Z,6.62
2017-05-08T07:54:11.378Z,8.47
2017-05-08T07:56:38.038Z,7.40
2017-05-08T07:59:04.703Z,7.68
2017-05-08T08:01:31.374Z,10.05
2017-05-08T08:03:58.026Z,8.93
2017-05-08T08:06:24.690Z,12.32
2017-05-08T08:08:51.346Z,7.53
2017-05-08T08:11:18.027Z,9.60
2017-05-08T08:13:44.687Z,9.98
2017-05-08T08:16:11.371Z,11.07
2017-05-08T08:18:38.031Z,9.12
2017-05-08T08:21:04.691Z,9.72
2017-05-08T08:23:31.634Z,8.48
2017-05-08T08:25:58.287Z,8.95
2017-05-08T08:28:24.938Z,8.85
2017-05-08T08:30:51.603Z,7.80
2017-05-08T08:33:18.262Z,13.12
2017-05-08T08:35:44.926Z,10.03
2017-05-08T08:38:11.591Z,7.47
2017-05-08T08:40:38.253Z,10.08
2017-05-08T08:43:04.910Z,13.23
2017-05-08T08:45:31.570Z,10.87
2017-05-08T08:47:58.229Z,11.25
2017-05-08T08:50:24.895Z,10.43
2017-05-08T08:52:51.563Z,11.78
2017-05-08T08:55:18.226Z,12.25
2017-05-08T08:57:44.891Z,8.95
2017-05-08T09:00:11.555Z,11.13
2017-05-08T09:02:38.215Z,11.85
2017-05-08T09:05:04.871Z,9.15
2017-05-08T09:07:31.558Z,6.42
2017-05-08T09:09:58.224Z,10.18
2017-05-08T09:12:24.887Z,7.17
2017-05-08T09:14:51.546Z,10.18
2017-05-08T09:17:18.222Z,7.40
2017-05-08T09:19:44.886Z,10.42
2017-05-08T09:22:11.579Z,9.02
2017-05-08T09:24:38.242Z,13.12
2017-05-08T09:27:04.899Z,12.05
2017-05-08T09:29:31.554Z,10.00
2017-05-08T09:31:58.211Z,9.08
2017-05-08T09:34:24.878Z,13.22
2017-05-08T09:36:51.543Z,10.20
2017-05-08T09:39:18.223Z,9.48
2017-05-08T09:41:44.883Z,10.23
2017-05-08T09:44:11.573Z,12.92
2017-05-08T09:46:38.235Z,12.13
2017-05-08T09:49:04.918Z,12.73
2017-05-08T09:51:31.595Z,13.32
2017-05-08T09:53:58.270Z,13.80
2017-05-08T09:56:24.940Z,9.85
2017-05-08T09:58:51.598Z,11.45
2017-05-08T10:01:18.258Z,13.93
2017-05-08T10:03:44.922Z,9.98
2017-05-08T10:06:11.586Z,14.20
2017-05-08T10:08:38.250Z,9.63
2017-05-08T10:11:04.910Z,11.67
2017-05-08T10:13:31.566Z,13.95
2017-05-08T10:15:58.232Z,16.00
2017-05-08T10:18:24.902Z,12.08
2017-05-08T10:20:51.582Z,15.13
2017-05-08T10:23:18.249Z,11.87
2017-05-08T10:25:44.934Z,13.52
2017-05-08T10:28:11.598Z,12.48
2017-05-08T10:30:38.305Z,14.20
2017-05-08T10:33:04.978Z,10.08
2017-05-08T10:35:31.642Z,19.37
2017-05-08T10:37:58.302Z,10.15
2017-05-08T10:40:24.967Z,11.07
2017-05-08T10:42:51.652Z,9.07
2017-05-08T10:45:18.398Z,9.75
2017-05-08T10:47:45.058Z,10.73
2017-05-08T10:50:11.727Z,12.30
2017-05-08T10:52:38.468Z,11.85
2017-05-08T10:55:05.243Z,13.43
2017-05-08T10:57:31.944Z,9.12
2017-05-08T10:59:58.624Z,14.20
2017-05-08T11:02:25.401Z,9.58
2017-05-08T11:04:52.068Z,10.42
2017-05-08T11:07:18.737Z,14.63
2017-05-08T11:09:45.403Z,14.02
2017-05-08T11:12:12.075Z,16.23
2017-05-08T11:14:38.760Z,11.70
2017-05-08T11:17:05.423Z,17.93
2017-05-08T11:19:32.091Z,11.38
2017-05-08T11:21:58.770Z,15.98
2017-05-08T11:24:25.443Z,11.53
2017-05-08T11:26:52.112Z,10.93
2017-05-08T11:29:18.803Z,12.55
2017-05-08T11:31:45.480Z,14.35
2017-05-08T11:34:12.193Z,12.58
2017-05-08T11:36:38.866Z,11.00
2017-05-08T11:39:05.534Z,10.12
2017-05-08T11:41:32.212Z,12.32
2017-05-08T11:43:58.875Z,10.95
2017-05-08T11:46:25.534Z,13.70
2017-05-08T11:48:52.212Z,10.38
2017-05-08T11:51:18.887Z,13.05
2017-05-08T11:53:45.559Z,11.55
2017-05-08T11:56:12.250Z,11.27
2017-05-08T11:58:38.950Z,11.53
2017-05-08T12:01:05.642Z,13.55
2017-05-08T12:03:32.311Z,10.72
2017-05-08T12:05:59.006Z,11.87
2017-05-08T12:08:25.679Z,12.22
2017-05-08T12:10:52.381Z,10.28
2017-05-08T12:13:19.054Z,6.40
2017-05-08T12:15:45.728Z,8.57
2017-05-08T12:18:12.398Z,8.37
2017-05-08T12:20:39.062Z,8.50
2017-05-08T12:23:05.739Z,8.15
2017-05-08T12:25:32.408Z,9.53
2017-05-08T12:27:59.074Z,5.75
2017-05-08T12:30:26.521Z,5.60
2017-05-08T12:32:53.204Z,4.82
2017-05-08T12:35:19.863Z,5.05
2017-05-08T12:37:46.539Z,7.98
2017-05-08T12:40:13.206Z,5.32
2017-05-08T12:42:39.882Z,5.13
2017-05-08T12:45:06.548Z,7.47
2017-05-08T12:47:33.279Z,6.65
2017-05-08T12:49:59.945Z,5.47
2017-05-08T12:52:26.609Z,6.25
2017-05-08T12:54:53.302Z,6.22
2017-05-08T12:57:19.987Z,6.00
2017-05-08T12:59:46.671Z,7.02
2017-05-08T13:02:13.341Z,8.88
2017-05-08T13:04:40.043Z,8.68
2017-05-08T13:07:06.719Z,6.07
2017-05-08T13:09:33.407Z,6.78
2017-05-08T13:12:00.090Z,6.83
2017-05-08T13:14:26.790Z,6.02
2017-05-08T13:16:53.471Z,6.33
2017-05-08T13:19:20.429Z,7.08
2017-05-08T13:21:47.110Z,9.20
2017-05-08T13:24:13.774Z,6.45
2017-05-08T13:26:40.458Z,8.47
2017-05-08T13:29:07.118Z,7.00
2017-05-08T13:31:33.802Z,7.55
2017-05-08T13:34:00.466Z,6.28
2017-05-08T13:36:27.218Z,6.67
2017-05-08T13:38:53.896Z,7.12
2017-05-08T13:41:20.568Z,6.65
2017-05-08T13:43:47.260Z,6.17
2017-05-08T13:46:13.928Z,6.75
2017-05-08T13:48:40.611Z,6.45
2017-05-08T13:51:07.272Z,6.62
2017-05-08T13:53:33.954Z,8.27
2017-05-08T13:56:00.622Z,7.40
2017-05-08T13:58:27.311Z,6.12
2017-05-08T14:00:53.982Z,6.15
2017-05-08T14:03:20.649Z,6.40
2017-05-08T14:05:47.343Z,5.58
2017-05-08T14:08:14.011Z,6.20
2017-05-08T14:10:40.699Z,7.38
2017-05-08T14:13:07.376Z,6.35
2017-05-08T14:15:34.067Z,6.50
2017-05-08T14:18:00.735Z,6.10
2017-05-08T14:20:27.432Z,7.02
2017-05-08T14:22:54.086Z,5.73
2017-05-08T14:25:20.751Z,6.22
2017-05-08T14:27:47.441Z,6.77
2017-05-08T14:30:14.119Z,6.92
2017-05-08T14:32:40.798Z,6.80
2017-05-08T14:35:07.462Z,6.52
2017-05-08T14:37:34.147Z,7.03
2017-05-08T14:40:00.830Z,6.85
2017-05-08T14:42:27.515Z,5.98
2017-05-08T14:44:54.183Z,6.88
2017-05-08T14:47:20.842Z,6.88
2017-05-08T14:49:47.526Z,8.63
2017-05-08T14:52:14.188Z,7.25
2017-05-08T14:54:40.859Z,7.28
2017-05-08T14:57:07.554Z,6.25
2017-05-08T14:59:34.224Z,7.78
2017-05-08T15:02:00.890Z,7.35
2017-05-08T15:04:27.583Z,7.57
2017-05-08T15:06:54.250Z,7.22
2017-05-08T15:09:20.918Z,7.37
2017-05-08T15:11:47.608Z,6.43
2017-05-08T15:14:14.267Z,6.23
2017-05-08T15:16:40.927Z,6.30
2017-05-08T15:19:07.598Z,8.30
2017-05-08T15:21:34.275Z,7.70
2017-05-08T15:24:00.948Z,8.83
2017-05-08T15:26:27.623Z,7.37
2017-05-08T15:28:54.292Z,6.87
2017-05-08T15:31:20.951Z,5.85
2017-05-08T15:33:47.658Z,5.30
2017-05-08T15:36:14.330Z,3.52
2017-05-08T15:38:40.998Z,4.08
2017-05-08T15:41:07.672Z,4.08
2017-05-08T15:43:34.359Z,4.40
2017-05-08T15:46:01.039Z,4.27
2017-05-08T15:48:27.698Z,4.55
2017-05-08T15:50:54.355Z,5.13
2017-05-08T15:53:21.022Z,4.58
2017-05-08T15:55:47.693Z,4.92
2017-05-08T15:58:14.358Z,5.03
2017-05-08T16:00:41.029Z,5.35
2017-05-08T16:03:07.714Z,4.43
2017-05-08T16:05:34.378Z,4.40
2017-05-08T16:08:01.038Z,4.90
2017-05-08T16:10:27.723Z,5.88
2017-05-08T16:12:54.391Z,4.43
2017-05-08T16:15:21.090Z,5.33
2017-05-08T16:17:47.766Z,4.85
2017-05-08T16:20:14.460Z,4.65
2017-05-08T16:22:41.153Z,5.12
2017-05-08T16:25:07.834Z,4.48
2017-05-08T16:27:34.499Z,4.08
2017-05-08T16:30:01.383Z,3.08
2017-05-08T16:32:28.183Z,4.18
2017-05-08T16:34:54.874Z,4.85
2017-05-08T16:37:21.575Z,4.17
2017-05-08T16:39:48.237Z,4.32
2017-05-08T16:42:14.932Z,4.20
2017-05-08T16:44:41.610Z,4.10
2017-05-08T16:47:08.303Z,3.68
2017-05-08T16:49:34.972Z,3.75
2017-05-08T16:52:01.635Z,3.42
2017-05-08T16:54:28.331Z,3.52
2017-05-08T16:56:55.021Z,3.48
2017-05-08T16:59:21.682Z,3.38
2017-05-08T17:01:48.338Z,3.10
2017-05-08T17:04:15.010Z,3.38
2017-05-08T17:06:41.675Z,3.48
2017-05-08T17:09:08.336Z,3.38
2017-05-08T17:11:35.002Z,3.92
2017-05-08T17:14:01.690Z,3.28
2017-05-08T17:16:28.362Z,3.05
2017-05-08T17:18:55.054Z,3.33
2017-05-08T17:21:21.743Z,3.70
2017-05-08T17:23:48.443Z,3.48
2017-05-08T17:26:15.116Z,3.00
2017-05-08T17:28:41.774Z,4.13
2017-05-08T17:31:08.442Z,3.00
2017-05-08T17:33:35.103Z,3.38
2017-05-08T17:36:01.770Z,4.43
2017-05-08T17:38:28.429Z,2.95
2017-05-08T17:40:55.082Z,3.28
2017-05-08T17:43:21.743Z,3.97
2017-05-08T17:45:48.407Z,3.73
2017-05-08T17:48:15.083Z,4.88
2017-05-08T17:50:42.115Z,2.88
2017-05-08T17:53:08.775Z,2.87
2017-05-08T17:55:35.440Z,3.15
2017-05-08T17:58:02.106Z,4.05
2017-05-08T18:00:28.774Z,3.93
2017-05-08T18:02:55.430Z,3.68
2017-05-08T18:05:22.102Z,3.70
2017-05-08T18:07:48.766Z,4.18
2017-05-08T18:10:15.422Z,3.33
2017-05-08T18:12:42.099Z,3.65
2017-05-08T18:15:08.762Z,3.95
2017-05-08T18:17:35.435Z,4.73
2017-05-08T18:20:02.100Z,4.63
2017-05-08T18:22:28.758Z,4.93
2017-05-08T18:24:55.427Z,4.42
2017-05-08T18:27:22.087Z,4.68
2017-05-08T18:29:48.822Z,4.58
2017-05-08T18:32:15.484Z,6.23
2017-05-08T18:34:42.175Z,5.10
2017-05-08T18:37:08.834Z,4.18
2017-05-08T18:39:35.490Z,4.33
2017-05-08T18:42:02.156Z,4.10
2017-05-08T18:44:28.859Z,5.20
2017-05-08T18:46:55.591Z,5.75
2017-05-08T18:49:22.279Z,3.85
2017-05-08T18:51:48.947Z,4.52
2017-05-08T18:54:15.616Z,5.33
2017-05-08T18:56:42.275Z,7.20
2017-05-08T18:59:08.934Z,5.73
2017-05-08T19:01:35.607Z,5.40
2017-05-08T19:04:02.263Z,5.18
2017-05-08T19:06:28.919Z,6.88
2017-05-08T19:08:55.602Z,7.28
2017-05-08T19:11:22.271Z,5.35
2017-05-08T19:13:48.930Z,4.92
2017-05-08T19:16:15.591Z,5.10
2017-05-08T19:18:42.246Z,5.78
2017-05-08T19:21:08.908Z,5.30
2017-05-08T19:23:35.594Z,6.50
2017-05-08T19:26:02.256Z,4.53
2017-05-08T19:28:28.914Z,5.37
2017-05-08T19:30:55.580Z,4.28
2017-05-08T19:33:22.267Z,5.62
2017-05-08T19:35:48.954Z,4.67
2017-05-08T19:38:15.674Z,4.52
2017-05-08T19:40:42.462Z,4.38
2017-05-08T19:43:09.129Z,8.90
2017-05-08T19:45:35.814Z,5.63
2017-05-08T19:48:02.591Z,5.03
2017-05-08T19:50:29.286Z,5.93
2017-05-08T19:52:55.960Z,4.27
2017-05-08T19:55:22.659Z,4.90
2017-05-08T19:57:49.347Z,5.40
2017-05-08T20:00:16.010Z,5.13
2017-05-08T20:02:42.674Z,5.77
2017-05-08T20:05:09.340Z,7.85
2017-05-08T20:07:35.999Z,5.25
2017-05-08T20:10:02.668Z,6.20
2017-05-08T20:12:29.324Z,6.23
2017-05-08T20:14:56.011Z,5.92
2017-05-08T20:17:22.675Z,6.92
2017-05-08T20:19:49.335Z,6.17
2017-05-08T20:22:16.006Z,6.33
2017-05-08T20:24:42.670Z,4.88
2017-05-08T20:27:09.347Z,7.48
2017-05-08T20:29:36.005Z,5.47
2017-05-08T20:32:02.667Z,7.50
2017-05-08T20:34:29.339Z,6.05
2017-05-08T20:36:56.019Z,6.37
2017-05-08T20:39:22.710Z,6.10
2017-05-08T20:41:49.379Z,6.22
2017-05-08T20:44:16.091Z,6.63
2017-05-08T20:46:42.764Z,6.48
2017-05-08T20:49:09.434Z,10.78
2017-05-08T20:51:36.097Z,7.67
2017-05-08T20:54:02.767Z,7.98
2017-05-08T20:56:29.438Z,7.13
2017-05-08T20:58:56.112Z,7.12
2017-05-08T21:01:22.844Z,5.63
2017-05-08T21:03:49.517Z,5.33
2017-05-08T21:06:16.208Z,6.68
2017-05-08T21:08:42.871Z,6.72
2017-05-08T21:11:09.544Z,7.08
2017-05-08T21:13:36.234Z,8.33
2017-05-08T21:16:02.924Z,7.28
2017-05-08T21:18:29.620Z,7.37
2017-05-08T21:20:56.291Z,7.22
2017-05-08T21:23:22.985Z,8.07
2017-05-08T21:25:49.664Z,7.20
2017-05-08T21:28:16.327Z,7.40
2017-05-08T21:30:43.032Z,7.22
2017-05-08T21:33:09.704Z,7.82
2017-05-08T21:35:36.459Z,7.52
2017-05-08T21:38:03.128Z,8.50
2017-05-08T21:40:29.850Z,6.97
2017-05-08T21:42:56.712Z,9.57
2017-05-08T21:45:23.410Z,7.62
2017-05-08T21:47:50.102Z,9.35
2017-05-08T21:50:16.789Z,6.75
2017-05-08T21:52:43.451Z,6.53
2017-05-08T21:55:10.143Z,10.25
2017-05-08T21:57:36.841Z,7.78
2017-05-08T22:00:03.531Z,8.53
2017-05-08T22:02:30.271Z,8.97
2017-05-08T22:04:56.934Z,7.67
2017-05-08T22:07:24.799Z,7.30
2017-05-08T22:09:51.491Z,7.70
2017-05-08T22:12:18.175Z,10.25
2017-05-08T22:14:44.835Z,8.83
2017-05-08T22:17:11.539Z,7.17
2017-05-08T22:19:38.199Z,6.67
2017-05-08T22:22:04.866Z,7.22
2017-05-08T22:24:31.550Z,6.30
2017-05-08T22:26:58.234Z,7.02
2017-05-08T22:29:24.924Z,6.63
2017-05-08T22:31:51.603Z,6.15
2017-05-08T22:34:18.286Z,7.85
2017-05-08T22:36:44.950Z,6.97
2017-05-08T22:39:11.635Z,8.35
2017-05-08T22:41:38.313Z,7.05
2017-05-08T22:44:05.002Z,8.50
2017-05-08T22:46:31.663Z,7.58
2017-05-08T22:48:58.328Z,8.12
2017-05-08T22:51:25.018Z,7.92
2017-05-08T22:53:51.693Z,12.87
2017-05-08T22:56:18.377Z,7.47
2017-05-08T22:58:45.035Z,7.95
2017-05-08T23:01:11.724Z,7.25
2017-05-08T23:03:38.395Z,8.72
2017-05-08T23:06:05.079Z,7.62
2017-05-08T23:08:31.738Z,6.88
2017-05-08T23:10:58.399Z,8.05
2017-05-08T23:13:25.120Z,7.50
2017-05-08T23:15:51.779Z,7.05
2017-05-08T23:18:18.465Z,7.88
2017-05-08T23:20:45.131Z,6.30
2017-05-08T23:23:11.831Z,6.98
2017-05-08T23:25:38.495Z,6.60
2017-05-08T23:28:05.158Z,6.75
2017-05-08T23:30:31.868Z,8.53
2017-05-08T23:32:58.535Z,6.38
2017-05-08T23:35:25.243Z,6.25
2017-05-08T23:37:51.911Z,5.93
2017-05-08T23:40:18.594Z,7.23
2017-05-08T23:42:45.258Z,8.03
2017-05-08T23:45:11.938Z,6.12
2017-05-08T23:47:38.604Z,6.73
2017-05-08T23:50:05.304Z,7.08
2017-05-08T23:52:31.967Z,6.75
2017-05-08T23:54:58.634Z,6.20
2017-05-08T23:57:25.315Z,8.28
2017-05-08T23:59:51.988Z,6.58
